Arpin, Wisconsin
Current Conditions -  °F | °C
As of 5:54 PM on Friday 24 Oct 2014 (Local Time) from KMFI Reporting Station
Overcast Overcast  
Wind Chill: 14°   Ceiling: 2500
Heat Index: 14°   Visibility: 10mi
Dew Point: 11°   Wind: 7mph
Humidity: 78%   Direction: 200°SSW
Pressure: 29.88"   Gusts: NA
Location:  44.54°N, 90.04°W
Report Text: KMFI 242254Z AUTO 20006KT 10SM OVC025 14/11 A2988 RMK AO2 SLP122 T01440106
Loading
Personal Weather Stations






























Interactive Weather Map New forecast layout! Learn more

10-Day Weather Forecast

Advertisements
Track Severe Weather on mobile